sensor_id;sensor_type;location;lat;lon;timestamp;temperature;humidity
15143;DHT22;7672;50.834;6.286;2023-04-01T00:02:25;11.90;99.90
15143;DHT22;7672;50.834;6.286;2023-04-01T00:04:52;11.90;99.90
15143;DHT22;7672;50.834;6.286;2023-04-01T00:07:19;11.80;99.90
15143;DHT22;7672;50.834;6.286;2023-04-01T00:09:46;11.80;99.90
15143;DHT22;7672;50.834;6.286;2023-04-01T00:12:13;11.80;99.90
15143;DHT22;7672;50.834;6.286;2023-04-01T00:14:39;11.80;99.90
15143;DHT22;7672;50.834;6.286;2023-04-01T00:17:06;11.80;99.90
15143;DHT22;7672;50.834;6.286;2023-04-01T00:19:33;11.80;99.90
15143;DHT22;7672;50.834;6.286;2023-04-01T00:22:00;11.80;99.90
15143;DHT22;7672;50.834;6.286;2023-04-01T00:24:27;11.80;99.90
15143;DHT22;7672;50.834;6.286;2023-04-01T00:26:54;11.80;99.90
15143;DHT22;7672;50.834;6.286;2023-04-01T00:29:21;11.80;99.90
15143;DHT22;7672;50.834;6.286;2023-04-01T00:31:50;11.80;99.90
15143;DHT22;7672;50.834;6.286;2023-04-01T00:34:17;11.80;99.90
15143;DHT22;7672;50.834;6.286;2023-04-01T00:36:44;11.80;99.90
15143;DHT22;7672;50.834;6.286;2023-04-01T00:39:10;11.80;99.90
15143;DHT22;7672;50.834;6.286;2023-04-01T00:41:37;11.80;99.90
15143;DHT22;7672;50.834;6.286;2023-04-01T00:44:23;11.80;99.90
15143;DHT22;7672;50.834;6.286;2023-04-01T00:46:51;11.80;99.90
15143;DHT22;7672;50.834;6.286;2023-04-01T00:49:23;11.80;99.90
15143;DHT22;7672;50.834;6.286;2023-04-01T00:51:57;11.80;99.90
15143;DHT22;7672;50.834;6.286;2023-04-01T00:54:29;11.80;99.90
15143;DHT22;7672;50.834;6.286;2023-04-01T00:57:02;11.80;99.90
15143;DHT22;7672;50.834;6.286;2023-04-01T00:59:36;11.80;99.90
15143;DHT22;7672;50.834;6.286;2023-04-01T01:02:10;11.80;99.90
15143;DHT22;7672;50.834;6.286;2023-04-01T01:04:38;11.80;99.90
15143;DHT22;7672;50.834;6.286;2023-04-01T01:15:37;11.80;99.90
15143;DHT22;7672;50.834;6.286;2023-04-01T01:21:42;11.70;99.90
15143;DHT22;7672;50.834;6.286;2023-04-01T01:27:20;11.70;99.90
15143;DHT22;7672;50.834;6.286;2023-04-01T01:30:01;11.70;99.90
15143;DHT22;7672;50.834;6.286;2023-04-01T01:32:58;11.70;99.90
15143;DHT22;7672;50.834;6.286;2023-04-01T01:35:54;11.70;99.90
15143;DHT22;7672;50.834;6.286;2023-04-01T01:38:29;11.70;99.90
15143;DHT22;7672;50.834;6.286;2023-04-01T01:40:59;11.70;99.90
15143;DHT22;7672;50.834;6.286;2023-04-01T01:43:38;11.70;99.90
15143;DHT22;7672;50.834;6.286;2023-04-01T01:46:11;11.70;99.90
15143;DHT22;7672;50.834;6.286;2023-04-01T01:48:42;11.70;99.90
15143;DHT22;7672;50.834;6.286;2023-04-01T01:51:11;11.90;99.90
15143;DHT22;7672;50.834;6.286;2023-04-01T01:53:38;11.60;99.90
15143;DHT22;7672;50.834;6.286;2023-04-01T01:56:05;11.60;99.90
15143;DHT22;7672;50.834;6.286;2023-04-01T01:58:35;11.60;99.90
15143;DHT22;7672;50.834;6.286;2023-04-01T02:01:11;11.60;99.90
15143;DHT22;7672;50.834;6.286;2023-04-01T02:03:42;11.60;99.90
15143;DHT22;7672;50.834;6.286;2023-04-01T02:06:15;11.60;99.90
15143;DHT22;7672;50.834;6.286;2023-04-01T02:08:59;11.60;99.90
15143;DHT22;7672;50.834;6.286;2023-04-01T02:11:55;11.60;99.90
15143;DHT22;7672;50.834;6.286;2023-04-01T02:14:29;11.60;99.90
15143;DHT22;7672;50.834;6.286;2023-04-01T02:17:14;11.60;99.90
15143;DHT22;7672;50.834;6.286;2023-04-01T02:22:28;11.60;99.90
15143;DHT22;7672;50.834;6.286;2023-04-01T02:25:03;11.80;99.90
15143;DHT22;7672;50.834;6.286;2023-04-01T02:27:33;11.60;99.90
15143;DHT22;7672;50.834;6.286;2023-04-01T02:30:00;11.50;99.90
15143;DHT22;7672;50.834;6.286;2023-04-01T02:32:28;11.60;99.90
15143;DHT22;7672;50.834;6.286;2023-04-01T02:34:57;11.60;99.90
15143;DHT22;7672;50.834;6.286;2023-04-01T02:37:26;11.60;99.90
15143;DHT22;7672;50.834;6.286;2023-04-01T02:39:53;11.50;99.90
15143;DHT22;7672;50.834;6.286;2023-04-01T02:42:20;11.60;99.90
15143;DHT22;7672;50.834;6.286;2023-04-01T02:44:46;11.60;99.90
15143;DHT22;7672;50.834;6.286;2023-04-01T02:47:13;11.60;99.90
15143;DHT22;7672;50.834;6.286;2023-04-01T02:49:40;11.60;99.90
15143;DHT22;7672;50.834;6.286;2023-04-01T02:52:08;11.60;99.90
15143;DHT22;7672;50.834;6.286;2023-04-01T02:54:34;11.50;99.90
15143;DHT22;7672;50.834;6.286;2023-04-01T02:57:01;11.50;99.90
15143;DHT22;7672;50.834;6.286;2023-04-01T02:59:28;11.60;99.90
15143;DHT22;7672;50.834;6.286;2023-04-01T03:01:55;11.50;99.90
15143;DHT22;7672;50.834;6.286;2023-04-01T03:04:21;11.60;99.90
15143;DHT22;7672;50.834;6.286;2023-04-01T03:06:48;11.60;99.90
15143;DHT22;7672;50.834;6.286;2023-04-01T03:09:15;11.60;99.90
15143;DHT22;7672;50.834;6.286;2023-04-01T03:11:42;11.60;99.90
15143;DHT22;7672;50.834;6.286;2023-04-01T03:14:09;11.60;99.90
15143;DHT22;7672;50.834;6.286;2023-04-01T03:16:35;11.50;99.90
15143;DHT22;7672;50.834;6.286;2023-04-01T03:19:02;11.50;99.90
15143;DHT22;7672;50.834;6.286;2023-04-01T03:21:29;11.60;99.90
15143;DHT22;7672;50.834;6.286;2023-04-01T03:23:56;11.60;99.90
15143;DHT22;7672;50.834;6.286;2023-04-01T03:26:23;11.50;99.90
15143;DHT22;7672;50.834;6.286;2023-04-01T03:28:50;11.60;99.90
15143;DHT22;7672;50.834;6.286;2023-04-01T03:31:16;11.50;99.90
15143;DHT22;7672;50.834;6.286;2023-04-01T03:33:43;11.60;99.90
15143;DHT22;7672;50.834;6.286;2023-04-01T03:36:10;11.60;99.90
15143;DHT22;7672;50.834;6.286;2023-04-01T03:38:40;11.60;99.90
15143;DHT22;7672;50.834;6.286;2023-04-01T03:41:07;11.60;99.90
15143;DHT22;7672;50.834;6.286;2023-04-01T03:43:38;11.60;99.90
15143;DHT22;7672;50.834;6.286;2023-04-01T03:46:05;11.60;99.90
15143;DHT22;7672;50.834;6.286;2023-04-01T03:48:32;11.60;99.90
15143;DHT22;7672;50.834;6.286;2023-04-01T03:50:59;11.60;99.90
15143;DHT22;7672;50.834;6.286;2023-04-01T03:53:26;11.60;99.90
15143;DHT22;7672;50.834;6.286;2023-04-01T03:55:53;11.60;99.90
15143;DHT22;7672;50.834;6.286;2023-04-01T03:58:20;11.60;99.90
15143;DHT22;7672;50.834;6.286;2023-04-01T04:00:47;11.60;99.90
15143;DHT22;7672;50.834;6.286;2023-04-01T04:03:13;11.60;99.90
15143;DHT22;7672;50.834;6.286;2023-04-01T04:05:50;11.60;99.90
15143;DHT22;7672;50.834;6.286;2023-04-01T04:08:17;11.60;99.90
15143;DHT22;7672;50.834;6.286;2023-04-01T04:10:44;11.60;99.90
15143;DHT22;7672;50.834;6.286;2023-04-01T04:13:12;11.50;99.90
15143;DHT22;7672;50.834;6.286;2023-04-01T04:15:39;11.60;99.90
15143;DHT22;7672;50.834;6.286;2023-04-01T04:18:06;11.60;99.90
15143;DHT22;7672;50.834;6.286;2023-04-01T04:20:33;11.60;99.90
15143;DHT22;7672;50.834;6.286;2023-04-01T04:23:00;11.60;99.90
15143;DHT22;7672;50.834;6.286;2023-04-01T04:25:27;11.60;99.90
15143;DHT22;7672;50.834;6.286;2023-04-01T04:27:53;11.70;99.90
15143;DHT22;7672;50.834;6.286;2023-04-01T04:30:20;11.60;99.90
15143;DHT22;7672;50.834;6.286;2023-04-01T04:32:47;11.70;99.90
15143;DHT22;7672;50.834;6.286;2023-04-01T04:35:14;11.70;99.90
15143;DHT22;7672;50.834;6.286;2023-04-01T04:37:41;11.60;99.90
15143;DHT22;7672;50.834;6.286;2023-04-01T04:40:08;11.70;99.90
15143;DHT22;7672;50.834;6.286;2023-04-01T04:42:35;11.70;99.90
15143;DHT22;7672;50.834;6.286;2023-04-01T04:45:02;11.70;99.90
15143;DHT22;7672;50.834;6.286;2023-04-01T04:47:29;11.70;99.90
15143;DHT22;7672;50.834;6.286;2023-04-01T04:49:56;11.70;99.90
15143;DHT22;7672;50.834;6.286;2023-04-01T04:52:23;11.70;99.90
15143;DHT22;7672;50.834;6.286;2023-04-01T04:54:49;11.70;99.90
15143;DHT22;7672;50.834;6.286;2023-04-01T04:57:16;11.70;99.90
15143;DHT22;7672;50.834;6.286;2023-04-01T04:59:43;11.70;99.90
15143;DHT22;7672;50.834;6.286;2023-04-01T05:02:10;11.70;99.90
15143;DHT22;7672;50.834;6.286;2023-04-01T05:04:37;11.70;99.90
15143;DHT22;7672;50.834;6.286;2023-04-01T05:07:04;11.70;99.90
15143;DHT22;7672;50.834;6.286;2023-04-01T05:09:31;11.90;99.90
15143;DHT22;7672;50.834;6.286;2023-04-01T05:11:58;11.70;99.90
15143;DHT22;7672;50.834;6.286;2023-04-01T05:14:25;11.70;99.90
15143;DHT22;7672;50.834;6.286;2023-04-01T05:16:51;11.70;99.90
15143;DHT22;7672;50.834;6.286;2023-04-01T05:19:19;11.70;99.90
15143;DHT22;7672;50.834;6.286;2023-04-01T05:21:46;11.70;99.90
15143;DHT22;7672;50.834;6.286;2023-04-01T05:24:12;11.70;99.90
15143;DHT22;7672;50.834;6.286;2023-04-01T05:26:39;11.70;99.90
15143;DHT22;7672;50.834;6.286;2023-04-01T05:29:06;11.80;99.90
15143;DHT22;7672;50.834;6.286;2023-04-01T05:31:33;11.80;99.90
15143;DHT22;7672;50.834;6.286;2023-04-01T05:34:00;11.70;99.90
15143;DHT22;7672;50.834;6.286;2023-04-01T05:36:27;11.70;99.90
15143;DHT22;7672;50.834;6.286;2023-04-01T05:38:56;11.80;99.90
15143;DHT22;7672;50.834;6.286;2023-04-01T05:41:23;11.70;99.90
15143;DHT22;7672;50.834;6.286;2023-04-01T05:43:50;11.70;99.90
15143;DHT22;7672;50.834;6.286;2023-04-01T05:46:17;11.70;99.90
15143;DHT22;7672;50.834;6.286;2023-04-01T05:48:43;11.80;99.90
15143;DHT22;7672;50.834;6.286;2023-04-01T05:51:14;11.70;99.90
15143;DHT22;7672;50.834;6.286;2023-04-01T05:53:42;11.70;99.90
15143;DHT22;7672;50.834;6.286;2023-04-01T05:56:09;12.10;99.90
15143;DHT22;7672;50.834;6.286;2023-04-01T05:58:36;11.80;99.90
15143;DHT22;7672;50.834;6.286;2023-04-01T06:01:09;11.80;99.90
15143;DHT22;7672;50.834;6.286;2023-04-01T06:03:41;11.80;99.90
15143;DHT22;7672;50.834;6.286;2023-04-01T06:06:35;11.80;99.90
15143;DHT22;7672;50.834;6.286;2023-04-01T06:09:32;11.80;99.90
15143;DHT22;7672;50.834;6.286;2023-04-01T06:14:58;11.80;99.90
15143;DHT22;7672;50.834;6.286;2023-04-01T06:26:49;11.90;99.90
15143;DHT22;7672;50.834;6.286;2023-04-01T06:29:33;11.90;99.90
15143;DHT22;7672;50.834;6.286;2023-04-01T06:32:27;11.90;99.90
15143;DHT22;7672;50.834;6.286;2023-04-01T06:44:32;12.00;99.90
15143;DHT22;7672;50.834;6.286;2023-04-01T06:53:24;12.10;99.90
15143;DHT22;7672;50.834;6.286;2023-04-01T06:55:57;12.00;99.90
15143;DHT22;7672;50.834;6.286;2023-04-01T06:58:42;12.10;99.90
15143;DHT22;7672;50.834;6.286;2023-04-01T07:01:18;12.10;99.90
15143;DHT22;7672;50.834;6.286;2023-04-01T07:04:20;12.10;99.90
15143;DHT22;7672;50.834;6.286;2023-04-01T07:07:24;12.10;99.90
15143;DHT22;7672;50.834;6.286;2023-04-01T07:09:59;12.20;99.90
15143;DHT22;7672;50.834;6.286;2023-04-01T07:15:04;12.20;99.90
15143;DHT22;7672;50.834;6.286;2023-04-01T07:17:41;12.20;99.90
15143;DHT22;7672;50.834;6.286;2023-04-01T07:20:31;12.20;99.90
15143;DHT22;7672;50.834;6.286;2023-04-01T07:23:02;12.30;99.90
15143;DHT22;7672;50.834;6.286;2023-04-01T07:25:37;12.30;99.90
15143;DHT22;7672;50.834;6.286;2023-04-01T07:28:12;12.30;99.90
15143;DHT22;7672;50.834;6.286;2023-04-01T07:33:41;12.30;99.90
15143;DHT22;7672;50.834;6.286;2023-04-01T07:42:27;12.40;99.90
15143;DHT22;7672;50.834;6.286;2023-04-01T07:45:27;12.50;99.90
15143;DHT22;7672;50.834;6.286;2023-04-01T07:51:27;12.50;99.90
15143;DHT22;7672;50.834;6.286;2023-04-01T07:54:16;12.50;99.90
15143;DHT22;7672;50.834;6.286;2023-04-01T07:57:02;12.50;99.90
15143;DHT22;7672;50.834;6.286;2023-04-01T08:00:00;12.60;99.90
15143;DHT22;7672;50.834;6.286;2023-04-01T08:05:55;12.60;99.90
15143;DHT22;7672;50.834;6.286;2023-04-01T08:08:51;12.60;99.90
15143;DHT22;7672;50.834;6.286;2023-04-01T08:15:20;12.60;99.90
15143;DHT22;7672;50.834;6.286;2023-04-01T08:20:48;12.70;99.90
15143;DHT22;7672;50.834;6.286;2023-04-01T08:23:24;12.70;99.90
15143;DHT22;7672;50.834;6.286;2023-04-01T08:28:54;12.70;99.90
15143;DHT22;7672;50.834;6.286;2023-04-01T08:34:21;12.70;99.90
15143;DHT22;7672;50.834;6.286;2023-04-01T08:36:57;12.80;99.90
15143;DHT22;7672;50.834;6.286;2023-04-01T08:39:41;12.80;99.90
15143;DHT22;7672;50.834;6.286;2023-04-01T08:42:36;12.80;99.90
15143;DHT22;7672;50.834;6.286;2023-04-01T08:45:48;12.90;99.90
15143;DHT22;7672;50.834;6.286;2023-04-01T09:00:38;13.00;99.90
15143;DHT22;7672;50.834;6.286;2023-04-01T09:06:31;13.10;99.90
15143;DHT22;7672;50.834;6.286;2023-04-01T09:15:34;13.30;99.90
15143;DHT22;7672;50.834;6.286;2023-04-01T09:21:04;13.40;99.90
15143;DHT22;7672;50.834;6.286;2023-04-01T09:27:05;13.40;99.90
15143;DHT22;7672;50.834;6.286;2023-04-01T09:40:43;13.60;99.90
15143;DHT22;7672;50.834;6.286;2023-04-01T09:46:18;13.70;99.90
15143;DHT22;7672;50.834;6.286;2023-04-01T09:55:26;13.90;99.90
15143;DHT22;7672;50.834;6.286;2023-04-01T09:58:20;14.00;99.90
15143;DHT22;7672;50.834;6.286;2023-04-01T10:13:05;14.30;99.90
15143;DHT22;7672;50.834;6.286;2023-04-01T10:46:19;14.90;99.90
15143;DHT22;7672;50.834;6.286;2023-04-01T11:08:20;15.40;99.90
15143;DHT22;7672;50.834;6.286;2023-04-01T11:17:38;15.40;99.90
15143;DHT22;7672;50.834;6.286;2023-04-01T11:24:26;15.30;99.90
15143;DHT22;7672;50.834;6.286;2023-04-01T11:29:27;15.20;99.90
15143;DHT22;7672;50.834;6.286;2023-04-01T11:35:17;15.00;99.90
15143;DHT22;7672;50.834;6.286;2023-04-01T11:38:26;14.90;99.90
15143;DHT22;7672;50.834;6.286;2023-04-01T11:41:38;14.80;99.90
15143;DHT22;7672;50.834;6.286;2023-04-01T11:44:20;14.70;99.90
15143;DHT22;7672;50.834;6.286;2023-04-01T12:07:34;14.60;99.90
15143;DHT22;7672;50.834;6.286;2023-04-01T12:16:07;14.80;99.90
15143;DHT22;7672;50.834;6.286;2023-04-01T12:19:04;14.90;99.90
15143;DHT22;7672;50.834;6.286;2023-04-01T12:22:29;15.00;99.90
15143;DHT22;7672;50.834;6.286;2023-04-01T12:24:58;15.00;99.90
15143;DHT22;7672;50.834;6.286;2023-04-01T12:31:02;15.10;99.90
15143;DHT22;7672;50.834;6.286;2023-04-01T12:33:50;15.10;99.90
15143;DHT22;7672;50.834;6.286;2023-04-01T12:39:44;15.20;99.90
15143;DHT22;7672;50.834;6.286;2023-04-01T12:42:57;15.20;99.90
15143;DHT22;7672;50.834;6.286;2023-04-01T12:48:27;15.20;99.90
15143;DHT22;7672;50.834;6.286;2023-04-01T12:51:09;15.20;99.90
15143;DHT22;7672;50.834;6.286;2023-04-01T13:04:06;15.20;99.90
15143;DHT22;7672;50.834;6.286;2023-04-01T13:13:20;15.40;99.90
15143;DHT22;7672;50.834;6.286;2023-04-01T13:16:08;15.50;99.90
15143;DHT22;7672;50.834;6.286;2023-04-01T13:18:56;15.60;99.90
15143;DHT22;7672;50.834;6.286;2023-04-01T13:27:34;15.90;99.90
15143;DHT22;7672;50.834;6.286;2023-04-01T13:33:15;16.00;99.90
15143;DHT22;7672;50.834;6.286;2023-04-01T13:35:56;16.10;99.90
15143;DHT22;7672;50.834;6.286;2023-04-01T13:50:41;16.20;99.90
15143;DHT22;7672;50.834;6.286;2023-04-01T14:05:02;16.00;99.90
15143;DHT22;7672;50.834;6.286;2023-04-01T14:11:11;16.10;99.90
15143;DHT22;7672;50.834;6.286;2023-04-01T14:29:11;16.20;99.90
15143;DHT22;7672;50.834;6.286;2023-04-01T14:34:59;16.10;99.90
15143;DHT22;7672;50.834;6.286;2023-04-01T14:49:30;16.20;99.90
15143;DHT22;7672;50.834;6.286;2023-04-01T14:52:22;16.30;99.90
15143;DHT22;7672;50.834;6.286;2023-04-01T14:54:53;16.30;99.90
15143;DHT22;7672;50.834;6.286;2023-04-01T14:57:28;16.30;99.90
15143;DHT22;7672;50.834;6.286;2023-04-01T15:06:07;16.30;99.90
15143;DHT22;7672;50.834;6.286;2023-04-01T15:15:44;16.20;99.90
15143;DHT22;7672;50.834;6.286;2023-04-01T15:21:18;16.20;99.90
15143;DHT22;7672;50.834;6.286;2023-04-01T15:24:21;16.20;99.90
15143;DHT22;7672;50.834;6.286;2023-04-01T15:30:14;16.10;99.90
15143;DHT22;7672;50.834;6.286;2023-04-01T15:33:27;16.10;99.90
15143;DHT22;7672;50.834;6.286;2023-04-01T15:36:28;16.10;99.90
15143;DHT22;7672;50.834;6.286;2023-04-01T15:39:17;16.10;99.90
15143;DHT22;7672;50.834;6.286;2023-04-01T15:47:35;16.00;99.90
15143;DHT22;7672;50.834;6.286;2023-04-01T15:50:24;15.90;99.90
15143;DHT22;7672;50.834;6.286;2023-04-01T15:53:03;15.90;99.90
15143;DHT22;7672;50.834;6.286;2023-04-01T15:56:26;15.80;99.90
15143;DHT22;7672;50.834;6.286;2023-04-01T16:17:22;14.90;99.90
15143;DHT22;7672;50.834;6.286;2023-04-01T16:22:41;14.70;99.90
15143;DHT22;7672;50.834;6.286;2023-04-01T16:25:39;14.60;99.90
15143;DHT22;7672;50.834;6.286;2023-04-01T16:29:02;14.50;99.90
15143;DHT22;7672;50.834;6.286;2023-04-01T16:34:09;14.40;99.90
15143;DHT22;7672;50.834;6.286;2023-04-01T16:36:49;14.40;99.90
15143;DHT22;7672;50.834;6.286;2023-04-01T16:39:37;14.30;99.90
15143;DHT22;7672;50.834;6.286;2023-04-01T16:47:38;14.10;99.90
15143;DHT22;7672;50.834;6.286;2023-04-01T16:50:22;14.10;99.90
15143;DHT22;7672;50.834;6.286;2023-04-01T16:56:36;14.00;99.90
15143;DHT22;7672;50.834;6.286;2023-04-01T16:58:59;14.00;99.90
15143;DHT22;7672;50.834;6.286;2023-04-01T17:01:53;13.90;99.90
15143;DHT22;7672;50.834;6.286;2023-04-01T17:04:46;13.80;99.90
15143;DHT22;7672;50.834;6.286;2023-04-01T17:07:35;13.80;99.90
15143;DHT22;7672;50.834;6.286;2023-04-01T17:13:58;13.70;99.90
15143;DHT22;7672;50.834;6.286;2023-04-01T17:16:58;13.60;99.90
15143;DHT22;7672;50.834;6.286;2023-04-01T17:22:32;13.60;99.90
15143;DHT22;7672;50.834;6.286;2023-04-01T17:25:09;13.50;99.90
15143;DHT22;7672;50.834;6.286;2023-04-01T17:45:18;13.10;99.90
15143;DHT22;7672;50.834;6.286;2023-04-01T17:48:24;13.10;99.90
15143;DHT22;7672;50.834;6.286;2023-04-01T17:51:35;13.00;99.90
15143;DHT22;7672;50.834;6.286;2023-04-01T18:00:23;12.80;99.90
15143;DHT22;7672;50.834;6.286;2023-04-01T18:09:20;12.60;99.90
15143;DHT22;7672;50.834;6.286;2023-04-01T18:18:05;12.50;99.90
15143;DHT22;7672;50.834;6.286;2023-04-01T18:23:51;12.50;99.90
15143;DHT22;7672;50.834;6.286;2023-04-01T18:26:31;12.50;99.90
15143;DHT22;7672;50.834;6.286;2023-04-01T18:31:52;12.40;99.90
15143;DHT22;7672;50.834;6.286;2023-04-01T18:37:32;12.40;99.90
15143;DHT22;7672;50.834;6.286;2023-04-01T18:43:33;12.40;99.90
15143;DHT22;7672;50.834;6.286;2023-04-01T18:46:16;12.30;99.90
15143;DHT22;7672;50.834;6.286;2023-04-01T18:49:12;12.30;99.90
15143;DHT22;7672;50.834;6.286;2023-04-01T18:52:36;12.30;99.90
15143;DHT22;7672;50.834;6.286;2023-04-01T18:55:18;12.20;99.90
15143;DHT22;7672;50.834;6.286;2023-04-01T18:58:06;12.20;99.90
15143;DHT22;7672;50.834;6.286;2023-04-01T19:00:49;12.20;99.90
15143;DHT22;7672;50.834;6.286;2023-04-01T19:06:55;12.20;99.90
15143;DHT22;7672;50.834;6.286;2023-04-01T19:15:33;12.10;99.90
15143;DHT22;7672;50.834;6.286;2023-04-01T19:27:28;12.20;99.90
15143;DHT22;7672;50.834;6.286;2023-04-01T19:30:56;12.20;99.90
15143;DHT22;7672;50.834;6.286;2023-04-01T19:34:37;12.20;99.90
15143;DHT22;7672;50.834;6.286;2023-04-01T19:37:00;12.20;99.90
15143;DHT22;7672;50.834;6.286;2023-04-01T19:40:07;12.10;99.90
15143;DHT22;7672;50.834;6.286;2023-04-01T19:48:42;12.00;99.90
15143;DHT22;7672;50.834;6.286;2023-04-01T19:51:57;12.00;99.90
15143;DHT22;7672;50.834;6.286;2023-04-01T19:57:48;12.00;99.90
15143;DHT22;7672;50.834;6.286;2023-04-01T20:00:47;12.00;99.90
15143;DHT22;7672;50.834;6.286;2023-04-01T20:06:32;11.90;99.90
15143;DHT22;7672;50.834;6.286;2023-04-01T20:09:40;11.90;99.90
15143;DHT22;7672;50.834;6.286;2023-04-01T20:12:18;11.90;99.90
15143;DHT22;7672;50.834;6.286;2023-04-01T20:14:57;11.90;99.90
15143;DHT22;7672;50.834;6.286;2023-04-01T20:17:38;11.90;99.90
15143;DHT22;7672;50.834;6.286;2023-04-01T20:25:26;11.90;99.90
15143;DHT22;7672;50.834;6.286;2023-04-01T20:30:51;11.90;99.90
15143;DHT22;7672;50.834;6.286;2023-04-01T20:39:20;11.90;99.90
15143;DHT22;7672;50.834;6.286;2023-04-01T20:42:34;11.90;99.90
15143;DHT22;7672;50.834;6.286;2023-04-01T20:45:30;11.90;99.90
15143;DHT22;7672;50.834;6.286;2023-04-01T20:51:15;11.80;99.90
15143;DHT22;7672;50.834;6.286;2023-04-01T20:54:00;11.80;99.90
15143;DHT22;7672;50.834;6.286;2023-04-01T21:08:02;11.80;99.90
15143;DHT22;7672;50.834;6.286;2023-04-01T21:11:04;11.80;99.90
15143;DHT22;7672;50.834;6.286;2023-04-01T21:38:38;11.90;99.90
15143;DHT22;7672;50.834;6.286;2023-04-01T21:41:26;11.90;99.90
15143;DHT22;7672;50.834;6.286;2023-04-01T21:47:38;11.90;99.90
15143;DHT22;7672;50.834;6.286;2023-04-01T21:50:27;11.90;99.90
15143;DHT22;7672;50.834;6.286;2023-04-01T21:53:37;11.90;99.90
15143;DHT22;7672;50.834;6.286;2023-04-01T22:06:03;11.90;99.90
15143;DHT22;7672;50.834;6.286;2023-04-01T22:11:48;11.90;99.90
15143;DHT22;7672;50.834;6.286;2023-04-01T22:17:31;11.90;99.90
15143;DHT22;7672;50.834;6.286;2023-04-01T22:32:12;11.90;99.90
15143;DHT22;7672;50.834;6.286;2023-04-01T22:34:49;11.90;99.90
15143;DHT22;7672;50.834;6.286;2023-04-01T22:43:42;11.90;99.90
15143;DHT22;7672;50.834;6.286;2023-04-01T22:49:25;11.80;99.90
15143;DHT22;7672;50.834;6.286;2023-04-01T22:55:03;11.70;99.90
15143;DHT22;7672;50.834;6.286;2023-04-01T23:00:14;11.60;99.90
15143;DHT22;7672;50.834;6.286;2023-04-01T23:03:06;11.60;99.90
15143;DHT22;7672;50.834;6.286;2023-04-01T23:05:40;11.50;99.90
15143;DHT22;7672;50.834;6.286;2023-04-01T23:11:14;11.40;99.90
15143;DHT22;7672;50.834;6.286;2023-04-01T23:13:49;11.40;99.90
15143;DHT22;7672;50.834;6.286;2023-04-01T23:16:39;11.30;99.90
15143;DHT22;7672;50.834;6.286;2023-04-01T23:21:52;11.20;99.90
15143;DHT22;7672;50.834;6.286;2023-04-01T23:29:57;11.20;99.90
15143;DHT22;7672;50.834;6.286;2023-04-01T23:32:26;11.10;99.90
15143;DHT22;7672;50.834;6.286;2023-04-01T23:34:57;11.10;99.90
15143;DHT22;7672;50.834;6.286;2023-04-01T23:37:29;11.10;99.90
15143;DHT22;7672;50.834;6.286;2023-04-01T23:39:58;11.00;99.90
15143;DHT22;7672;50.834;6.286;2023-04-01T23:42:30;11.00;99.90
15143;DHT22;7672;50.834;6.286;2023-04-01T23:45:26;11.00;99.90
15143;DHT22;7672;50.834;6.286;2023-04-01T23:47:54;11.00;99.90
15143;DHT22;7672;50.834;6.286;2023-04-01T23:50:25;11.00;99.90
15143;DHT22;7672;50.834;6.286;2023-04-01T23:53:00;11.00;99.90
15143;DHT22;7672;50.834;6.286;2023-04-01T23:55:32;10.90;99.90
